TimeCET,TemperatureF,Dew PointF,Humidity,Sea Level PressureIn,VisibilityMPH,Wind Direction,Wind SpeedMPH,Gust SpeedMPH,PrecipitationIn,Events,Conditions,WindDirDegrees,DateUTC
12:55 AM,12.2,5.0,73,29.92,-9999.0,North,8.1,-,N/A,,Clear,350,2013-02-25 23:55:00
1:00 AM,12,5,62,,12,North,8.1,,,,,350,2013-02-26 00:00:00
3:55 AM,12.2,3.2,67,29.92,-9999.0,NNW,6.9,-,N/A,,Clear,330,2013-02-26 02:55:00
4:00 AM,12,4,57,,12,NNW,6.9,,,,,330,2013-02-26 03:00:00
4:55 AM,12.2,3.2,67,29.92,-9999.0,NW,5.8,-,N/A,,Clear,310,2013-02-26 03:55:00
5:55 AM,12.2,3.2,67,29.92,-9999.0,West,4.6,-,N/A,,Clear,280,2013-02-26 04:55:00
6:55 AM,12.2,3.2,67,29.92,-9999.0,West,3.5,-,N/A,,Clear,270,2013-02-26 05:55:00
7:00 AM,12,3,54,,19,West,3.5,,,,Clear,270,2013-02-26 06:00:00
7:55 AM,14.0,1.4,57,29.92,-9999.0,WNW,5.8,-,N/A,,Clear,290,2013-02-26 06:55:00
8:55 AM,15.8,-2.2,45,29.92,-9999.0,WNW,2.3,-,N/A,,Clear,300,2013-02-26 07:55:00
9:55 AM,19.4,-0.4,42,29.92,6.2,West,3.5,-,N/A,,Scattered Clouds,260,2013-02-26 08:55:00
10:00 AM,19,-0,28,,47,West,3.5,,,,Partly Cloudy,260,2013-02-26 09:00:00
10:55 AM,23.0,1.4,39,29.92,6.2,North,4.6,-,N/A,,Mostly Cloudy,350,2013-02-26 09:55:00
11:55 AM,23.0,3.2,43,29.92,6.2,North,8.1,-,N/A,,Mostly Cloudy,10,2013-02-26 10:55:00
12:55 PM,26.6,12.2,55,29.95,6.2,NW,2.3,-,N/A,,Scattered Clouds,320,2013-02-26 11:55:00
1:00 PM,27,12,39,,47,NW,2.3,,,,Partly Cloudy,320,2013-02-26 12:00:00
1:55 PM,26.6,12.2,55,29.98,6.2,NNE,2.3,-,N/A,,Partly Cloudy,20,2013-02-26 12:55:00
2:55 PM,24.8,14.0,64,29.98,-9999.0,NNE,9.2,-,N/A,,Clear,30,2013-02-26 13:55:00
3:55 PM,24.8,14.0,64,29.95,-9999.0,NNE,3.5,-,N/A,,Clear,30,2013-02-26 14:55:00
4:00 PM,24,14,55,,47,NNE,3.5,,,,Clear,30,2013-02-26 15:00:00
4:55 PM,24.8,15.8,69,29.98,-9999.0,North,2.3,-,N/A,,Clear,350,2013-02-26 15:55:00
5:55 PM,23.0,14.0,68,29.95,-9999.0,NW,5.8,-,N/A,,Clear,310,2013-02-26 16:55:00
6:55 PM,21.2,14.0,74,29.95,-9999.0,WNW,3.5,-,N/A,,Clear,300,2013-02-26 17:55:00
7:00 PM,21,14,65,,31,WNW,3.5,,,,Clear,300,2013-02-26 18:00:00
9:55 PM,21.2,14.0,74,29.98,-9999.0,NNW,5.8,-,N/A,,Clear,340,2013-02-26 20:55:00
10:00 PM,22,15,64,,25,NNW,5.8,,,,Clear,340,2013-02-26 21:00:00